sensor_id;sensor_type;location;lat;lon;timestamp;temperature;humidity
27741;DHT22;15134;48.768;9.184;2024-03-23T00:55:28;12.30;99.90
27741;DHT22;15134;48.768;9.184;2024-03-23T00:57:54;12.30;99.90
27741;DHT22;15134;48.768;9.184;2024-03-23T01:00:19;12.30;99.90
27741;DHT22;15134;48.768;9.184;2024-03-23T01:02:45;12.20;99.90
27741;DHT22;15134;48.768;9.184;2024-03-23T01:05:11;12.30;99.90
27741;DHT22;15134;48.768;9.184;2024-03-23T01:07:36;12.20;99.90
27741;DHT22;15134;48.768;9.184;2024-03-23T01:10:02;12.20;99.90
27741;DHT22;15134;48.768;9.184;2024-03-23T01:12:28;12.20;99.90
27741;DHT22;15134;48.768;9.184;2024-03-23T01:14:54;12.20;99.90
27741;DHT22;15134;48.768;9.184;2024-03-23T01:17:20;12.20;99.90
27741;DHT22;15134;48.768;9.184;2024-03-23T01:19:45;12.30;99.90
27741;DHT22;15134;48.768;9.184;2024-03-23T01:22:11;12.30;99.90
27741;DHT22;15134;48.768;9.184;2024-03-23T01:24:37;12.30;99.90
27741;DHT22;15134;48.768;9.184;2024-03-23T01:27:02;12.40;99.90
27741;DHT22;15134;48.768;9.184;2024-03-23T01:29:29;12.50;99.90
27741;DHT22;15134;48.768;9.184;2024-03-23T01:31:54;12.50;99.90
27741;DHT22;15134;48.768;9.184;2024-03-23T01:34:20;12.60;99.90
27741;DHT22;15134;48.768;9.184;2024-03-23T01:36:46;12.70;99.90
27741;DHT22;15134;48.768;9.184;2024-03-23T01:39:13;12.80;99.90
27741;DHT22;15134;48.768;9.184;2024-03-23T01:41:40;12.90;99.90
27741;DHT22;15134;48.768;9.184;2024-03-23T01:44:08;12.90;99.90
27741;DHT22;15134;48.768;9.184;2024-03-23T01:46:40;13.00;99.90
27741;DHT22;15134;48.768;9.184;2024-03-23T01:49:07;13.00;99.90
27741;DHT22;15134;48.768;9.184;2024-03-23T01:51:34;13.00;99.90
27741;DHT22;15134;48.768;9.184;2024-03-23T01:54:02;13.00;99.90
27741;DHT22;15134;48.768;9.184;2024-03-23T01:56:33;12.90;99.90
27741;DHT22;15134;48.768;9.184;2024-03-23T01:59:01;12.90;99.90
27741;DHT22;15134;48.768;9.184;2024-03-23T02:01:27;13.00;99.90
27741;DHT22;15134;48.768;9.184;2024-03-23T02:03:53;13.00;99.90
27741;DHT22;15134;48.768;9.184;2024-03-23T02:06:19;13.00;99.90
27741;DHT22;15134;48.768;9.184;2024-03-23T02:08:44;13.00;99.90
27741;DHT22;15134;48.768;9.184;2024-03-23T02:11:10;13.00;99.90
27741;DHT22;15134;48.768;9.184;2024-03-23T02:13:36;13.10;99.90
27741;DHT22;15134;48.768;9.184;2024-03-23T02:16:02;13.10;99.90
27741;DHT22;15134;48.768;9.184;2024-03-23T02:18:27;13.00;99.90
27741;DHT22;15134;48.768;9.184;2024-03-23T02:20:53;13.10;99.90
27741;DHT22;15134;48.768;9.184;2024-03-23T02:23:19;13.00;99.90
27741;DHT22;15134;48.768;9.184;2024-03-23T02:25:45;12.90;99.90
27741;DHT22;15134;48.768;9.184;2024-03-23T02:28:11;12.90;99.90
27741;DHT22;15134;48.768;9.184;2024-03-23T02:30:37;12.90;99.90
27741;DHT22;15134;48.768;9.184;2024-03-23T02:33:04;12.90;99.90
27741;DHT22;15134;48.768;9.184;2024-03-23T02:35:30;13.00;99.90
27741;DHT22;15134;48.768;9.184;2024-03-23T02:37:56;13.00;99.90
27741;DHT22;15134;48.768;9.184;2024-03-23T02:40:23;12.90;99.90
27741;DHT22;15134;48.768;9.184;2024-03-23T02:42:49;12.90;99.90
27741;DHT22;15134;48.768;9.184;2024-03-23T02:45:18;13.00;99.90
27741;DHT22;15134;48.768;9.184;2024-03-23T02:47:44;13.00;99.90
27741;DHT22;15134;48.768;9.184;2024-03-23T02:50:09;13.00;99.90
27741;DHT22;15134;48.768;9.184;2024-03-23T02:52:36;13.00;99.90
27741;DHT22;15134;48.768;9.184;2024-03-23T02:55:03;13.00;99.90
27741;DHT22;15134;48.768;9.184;2024-03-23T02:57:29;12.90;99.90
27741;DHT22;15134;48.768;9.184;2024-03-23T02:59:54;12.90;99.90
27741;DHT22;15134;48.768;9.184;2024-03-23T03:02:20;12.90;99.90
27741;DHT22;15134;48.768;9.184;2024-03-23T03:04:47;12.90;99.90
27741;DHT22;15134;48.768;9.184;2024-03-23T03:07:13;12.90;99.90
27741;DHT22;15134;48.768;9.184;2024-03-23T03:09:39;12.90;99.90
27741;DHT22;15134;48.768;9.184;2024-03-23T03:12:08;13.00;99.90
27741;DHT22;15134;48.768;9.184;2024-03-23T03:14:34;12.90;99.90
27741;DHT22;15134;48.768;9.184;2024-03-23T03:17:00;12.90;99.90
27741;DHT22;15134;48.768;9.184;2024-03-23T03:19:26;12.90;99.90
27741;DHT22;15134;48.768;9.184;2024-03-23T03:21:52;12.90;99.90
27741;DHT22;15134;48.768;9.184;2024-03-23T03:24:18;12.90;99.90
27741;DHT22;15134;48.768;9.184;2024-03-23T03:26:46;12.90;99.90
27741;DHT22;15134;48.768;9.184;2024-03-23T03:29:12;12.90;99.90
27741;DHT22;15134;48.768;9.184;2024-03-23T03:31:39;12.90;99.90
27741;DHT22;15134;48.768;9.184;2024-03-23T03:34:05;12.90;99.90
27741;DHT22;15134;48.768;9.184;2024-03-23T03:36:31;12.90;99.90
27741;DHT22;15134;48.768;9.184;2024-03-23T03:38:56;12.90;99.90
27741;DHT22;15134;48.768;9.184;2024-03-23T03:41:22;12.90;99.90
27741;DHT22;15134;48.768;9.184;2024-03-23T03:43:48;12.90;99.90
27741;DHT22;15134;48.768;9.184;2024-03-23T03:46:13;12.90;99.90
27741;DHT22;15134;48.768;9.184;2024-03-23T03:48:39;12.90;99.90
27741;DHT22;15134;48.768;9.184;2024-03-23T03:51:05;12.90;99.90
27741;DHT22;15134;48.768;9.184;2024-03-23T03:53:31;12.90;99.90
27741;DHT22;15134;48.768;9.184;2024-03-23T03:56:01;12.90;99.90
27741;DHT22;15134;48.768;9.184;2024-03-23T03:58:27;12.90;99.90
27741;DHT22;15134;48.768;9.184;2024-03-23T04:00:53;12.90;99.90
27741;DHT22;15134;48.768;9.184;2024-03-23T04:03:19;12.90;99.90
27741;DHT22;15134;48.768;9.184;2024-03-23T04:05:54;12.90;99.90
27741;DHT22;15134;48.768;9.184;2024-03-23T04:08:20;13.00;99.90
27741;DHT22;15134;48.768;9.184;2024-03-23T04:10:46;12.90;99.90
27741;DHT22;15134;48.768;9.184;2024-03-23T04:13:13;13.00;99.90
27741;DHT22;15134;48.768;9.184;2024-03-23T04:15:39;13.00;99.90
27741;DHT22;15134;48.768;9.184;2024-03-23T04:18:05;12.90;99.90
27741;DHT22;15134;48.768;9.184;2024-03-23T04:20:31;12.90;99.90
27741;DHT22;15134;48.768;9.184;2024-03-23T04:23:01;12.90;99.90
27741;DHT22;15134;48.768;9.184;2024-03-23T04:25:26;12.90;99.90
27741;DHT22;15134;48.768;9.184;2024-03-23T04:27:52;12.90;99.90
27741;DHT22;15134;48.768;9.184;2024-03-23T04:30:18;12.90;99.90
27741;DHT22;15134;48.768;9.184;2024-03-23T04:32:45;12.90;99.90
27741;DHT22;15134;48.768;9.184;2024-03-23T04:35:10;12.90;99.90
27741;DHT22;15134;48.768;9.184;2024-03-23T04:37:37;12.90;99.90
27741;DHT22;15134;48.768;9.184;2024-03-23T04:40:03;12.90;99.90
27741;DHT22;15134;48.768;9.184;2024-03-23T04:42:29;12.80;99.90
27741;DHT22;15134;48.768;9.184;2024-03-23T04:44:55;12.70;99.90
27741;DHT22;15134;48.768;9.184;2024-03-23T04:47:22;12.60;99.90
27741;DHT22;15134;48.768;9.184;2024-03-23T04:49:48;12.60;99.90
27741;DHT22;15134;48.768;9.184;2024-03-23T04:52:16;12.50;99.90
27741;DHT22;15134;48.768;9.184;2024-03-23T04:54:42;12.50;99.90
27741;DHT22;15134;48.768;9.184;2024-03-23T04:57:08;12.50;99.90
27741;DHT22;15134;48.768;9.184;2024-03-23T04:59:33;12.50;99.90
27741;DHT22;15134;48.768;9.184;2024-03-23T05:02:00;12.50;99.90
27741;DHT22;15134;48.768;9.184;2024-03-23T05:04:27;12.30;99.90
27741;DHT22;15134;48.768;9.184;2024-03-23T05:06:53;12.30;99.90
27741;DHT22;15134;48.768;9.184;2024-03-23T05:09:19;12.40;99.90
27741;DHT22;15134;48.768;9.184;2024-03-23T05:11:45;12.40;99.90
27741;DHT22;15134;48.768;9.184;2024-03-23T05:14:13;12.40;99.90
27741;DHT22;15134;48.768;9.184;2024-03-23T05:16:39;12.40;99.90
27741;DHT22;15134;48.768;9.184;2024-03-23T05:19:05;12.40;99.90
27741;DHT22;15134;48.768;9.184;2024-03-23T05:21:31;12.40;99.90
27741;DHT22;15134;48.768;9.184;2024-03-23T05:23:57;12.30;99.90
27741;DHT22;15134;48.768;9.184;2024-03-23T05:26:23;12.30;99.90
27741;DHT22;15134;48.768;9.184;2024-03-23T05:28:49;12.20;99.90
27741;DHT22;15134;48.768;9.184;2024-03-23T05:31:28;12.20;99.90
27741;DHT22;15134;48.768;9.184;2024-03-23T05:33:54;12.10;99.90
27741;DHT22;15134;48.768;9.184;2024-03-23T05:36:21;12.20;99.90
27741;DHT22;15134;48.768;9.184;2024-03-23T05:38:47;12.20;99.90
27741;DHT22;15134;48.768;9.184;2024-03-23T05:41:13;12.20;99.90
27741;DHT22;15134;48.768;9.184;2024-03-23T05:43:39;12.20;99.90
27741;DHT22;15134;48.768;9.184;2024-03-23T05:46:05;12.10;99.90
27741;DHT22;15134;48.768;9.184;2024-03-23T05:48:31;12.10;99.90
27741;DHT22;15134;48.768;9.184;2024-03-23T05:50:57;12.10;99.90
27741;DHT22;15134;48.768;9.184;2024-03-23T05:53:24;12.10;99.90
27741;DHT22;15134;48.768;9.184;2024-03-23T05:55:50;12.10;99.90
27741;DHT22;15134;48.768;9.184;2024-03-23T05:58:19;12.00;99.90
27741;DHT22;15134;48.768;9.184;2024-03-23T06:00:45;11.80;99.90
27741;DHT22;15134;48.768;9.184;2024-03-23T06:03:11;11.70;99.90
27741;DHT22;15134;48.768;9.184;2024-03-23T06:05:38;11.30;99.90
27741;DHT22;15134;48.768;9.184;2024-03-23T06:08:04;11.20;99.90
27741;DHT22;15134;48.768;9.184;2024-03-23T06:10:30;11.20;99.90
27741;DHT22;15134;48.768;9.184;2024-03-23T06:12:57;11.20;99.90
27741;DHT22;15134;48.768;9.184;2024-03-23T06:15:25;11.30;99.90
27741;DHT22;15134;48.768;9.184;2024-03-23T06:17:52;11.30;99.90
27741;DHT22;15134;48.768;9.184;2024-03-23T06:20:18;11.30;99.90
27741;DHT22;15134;48.768;9.184;2024-03-23T06:22:44;11.30;99.90
27741;DHT22;15134;48.768;9.184;2024-03-23T06:25:10;11.30;99.90
27741;DHT22;15134;48.768;9.184;2024-03-23T06:27:38;11.30;99.90
27741;DHT22;15134;48.768;9.184;2024-03-23T06:30:05;11.40;99.90
27741;DHT22;15134;48.768;9.184;2024-03-23T06:32:31;11.40;99.90
27741;DHT22;15134;48.768;9.184;2024-03-23T06:34:56;11.50;99.90
27741;DHT22;15134;48.768;9.184;2024-03-23T06:37:22;11.50;99.90
27741;DHT22;15134;48.768;9.184;2024-03-23T06:39:48;11.40;99.90
27741;DHT22;15134;48.768;9.184;2024-03-23T06:42:14;11.50;99.90
27741;DHT22;15134;48.768;9.184;2024-03-23T06:44:39;11.50;99.90
27741;DHT22;15134;48.768;9.184;2024-03-23T06:47:06;11.40;99.90
27741;DHT22;15134;48.768;9.184;2024-03-23T06:49:31;11.30;99.90
27741;DHT22;15134;48.768;9.184;2024-03-23T06:51:57;11.30;99.90
27741;DHT22;15134;48.768;9.184;2024-03-23T06:54:24;11.30;99.90
27741;DHT22;15134;48.768;9.184;2024-03-23T06:56:50;11.20;99.90
27741;DHT22;15134;48.768;9.184;2024-03-23T06:59:16;11.20;99.90
27741;DHT22;15134;48.768;9.184;2024-03-23T07:01:41;11.00;99.90
27741;DHT22;15134;48.768;9.184;2024-03-23T07:04:07;10.90;99.90
27741;DHT22;15134;48.768;9.184;2024-03-23T07:06:33;11.00;99.90
27741;DHT22;15134;48.768;9.184;2024-03-23T07:08:59;11.10;99.90
27741;DHT22;15134;48.768;9.184;2024-03-23T07:11:25;11.20;99.90
27741;DHT22;15134;48.768;9.184;2024-03-23T07:13:52;11.20;99.90
27741;DHT22;15134;48.768;9.184;2024-03-23T07:16:20;11.20;99.90
27741;DHT22;15134;48.768;9.184;2024-03-23T07:18:46;11.10;99.90
27741;DHT22;15134;48.768;9.184;2024-03-23T07:21:12;11.20;99.90
27741;DHT22;15134;48.768;9.184;2024-03-23T07:23:37;11.20;99.90
27741;DHT22;15134;48.768;9.184;2024-03-23T07:26:05;11.20;99.90
27741;DHT22;15134;48.768;9.184;2024-03-23T07:28:31;11.30;99.90
27741;DHT22;15134;48.768;9.184;2024-03-23T07:31:15;11.60;99.90
27741;DHT22;15134;48.768;9.184;2024-03-23T07:33:46;11.60;99.90
27741;DHT22;15134;48.768;9.184;2024-03-23T07:36:12;11.50;99.90
27741;DHT22;15134;48.768;9.184;2024-03-23T07:38:41;11.50;99.90
27741;DHT22;15134;48.768;9.184;2024-03-23T07:41:12;11.50;99.90
27741;DHT22;15134;48.768;9.184;2024-03-23T07:43:38;11.30;99.90
27741;DHT22;15134;48.768;9.184;2024-03-23T07:46:05;11.00;99.90
27741;DHT22;15134;48.768;9.184;2024-03-23T07:48:31;11.00;99.90
27741;DHT22;15134;48.768;9.184;2024-03-23T07:51:00;10.80;99.90
27741;DHT22;15134;48.768;9.184;2024-03-23T07:53:27;10.50;99.90
27741;DHT22;15134;48.768;9.184;2024-03-23T07:55:58;10.40;99.90
27741;DHT22;15134;48.768;9.184;2024-03-23T07:58:25;10.00;99.90
27741;DHT22;15134;48.768;9.184;2024-03-23T08:00:52;10.10;99.90
27741;DHT22;15134;48.768;9.184;2024-03-23T08:03:18;10.20;99.90
27741;DHT22;15134;48.768;9.184;2024-03-23T08:05:44;10.20;99.90
27741;DHT22;15134;48.768;9.184;2024-03-23T08:08:09;10.30;99.90
27741;DHT22;15134;48.768;9.184;2024-03-23T08:10:36;10.40;99.90
27741;DHT22;15134;48.768;9.184;2024-03-23T08:13:02;10.30;99.90
27741;DHT22;15134;48.768;9.184;2024-03-23T08:15:30;10.20;99.90
27741;DHT22;15134;48.768;9.184;2024-03-23T08:17:59;10.30;99.90
27741;DHT22;15134;48.768;9.184;2024-03-23T08:20:25;10.30;99.90
27741;DHT22;15134;48.768;9.184;2024-03-23T08:22:51;10.50;99.90
27741;DHT22;15134;48.768;9.184;2024-03-23T08:25:16;10.70;99.90
27741;DHT22;15134;48.768;9.184;2024-03-23T08:27:44;11.10;99.90
27741;DHT22;15134;48.768;9.184;2024-03-23T08:30:10;11.40;99.90
27741;DHT22;15134;48.768;9.184;2024-03-23T08:32:36;11.20;99.90
27741;DHT22;15134;48.768;9.184;2024-03-23T08:35:02;11.00;99.90
27741;DHT22;15134;48.768;9.184;2024-03-23T08:37:28;10.90;99.90
27741;DHT22;15134;48.768;9.184;2024-03-23T08:39:54;10.80;99.90
27741;DHT22;15134;48.768;9.184;2024-03-23T08:42:19;10.70;99.90
27741;DHT22;15134;48.768;9.184;2024-03-23T08:44:47;10.50;99.90
27741;DHT22;15134;48.768;9.184;2024-03-23T08:47:15;10.40;99.90
27741;DHT22;15134;48.768;9.184;2024-03-23T08:49:41;10.50;99.90
27741;DHT22;15134;48.768;9.184;2024-03-23T08:52:07;10.50;99.90
27741;DHT22;15134;48.768;9.184;2024-03-23T08:54:33;10.80;99.90
27741;DHT22;15134;48.768;9.184;2024-03-23T08:57:00;11.00;99.90
27741;DHT22;15134;48.768;9.184;2024-03-23T08:59:26;11.80;99.90
27741;DHT22;15134;48.768;9.184;2024-03-23T09:01:52;12.10;99.90
27741;DHT22;15134;48.768;9.184;2024-03-23T09:04:17;12.80;99.90
27741;DHT22;15134;48.768;9.184;2024-03-23T09:06:43;12.80;99.90
27741;DHT22;15134;48.768;9.184;2024-03-23T09:09:09;12.60;99.90
27741;DHT22;15134;48.768;9.184;2024-03-23T09:11:35;12.20;99.90
27741;DHT22;15134;48.768;9.184;2024-03-23T09:14:00;11.60;99.90
27741;DHT22;15134;48.768;9.184;2024-03-23T09:16:26;11.30;99.90
27741;DHT22;15134;48.768;9.184;2024-03-23T09:18:52;11.00;99.90
27741;DHT22;15134;48.768;9.184;2024-03-23T09:21:18;10.90;99.90
27741;DHT22;15134;48.768;9.184;2024-03-23T09:23:44;10.90;99.90
27741;DHT22;15134;48.768;9.184;2024-03-23T09:26:10;10.90;99.90
27741;DHT22;15134;48.768;9.184;2024-03-23T09:28:36;10.80;99.90
27741;DHT22;15134;48.768;9.184;2024-03-23T09:31:06;10.70;99.90
27741;DHT22;15134;48.768;9.184;2024-03-23T09:33:33;10.60;99.90
27741;DHT22;15134;48.768;9.184;2024-03-23T09:36:03;10.90;99.90
27741;DHT22;15134;48.768;9.184;2024-03-23T09:38:29;11.20;99.90
27741;DHT22;15134;48.768;9.184;2024-03-23T09:40:56;11.50;99.90
27741;DHT22;15134;48.768;9.184;2024-03-23T09:43:22;11.80;99.90
27741;DHT22;15134;48.768;9.184;2024-03-23T09:45:49;12.10;99.90
27741;DHT22;15134;48.768;9.184;2024-03-23T09:48:15;11.90;99.90
27741;DHT22;15134;48.768;9.184;2024-03-23T09:50:42;11.90;99.90
27741;DHT22;15134;48.768;9.184;2024-03-23T09:53:10;12.00;99.90
27741;DHT22;15134;48.768;9.184;2024-03-23T09:55:37;12.00;99.90
27741;DHT22;15134;48.768;9.184;2024-03-23T09:58:04;12.10;99.90
27741;DHT22;15134;48.768;9.184;2024-03-23T10:00:31;12.20;99.90
27741;DHT22;15134;48.768;9.184;2024-03-23T10:02:58;12.30;99.90
27741;DHT22;15134;48.768;9.184;2024-03-23T10:05:28;12.30;99.90
27741;DHT22;15134;48.768;9.184;2024-03-23T10:07:54;12.30;99.90
27741;DHT22;15134;48.768;9.184;2024-03-23T10:10:20;12.40;99.90
27741;DHT22;15134;48.768;9.184;2024-03-23T10:12:49;12.20;99.90
27741;DHT22;15134;48.768;9.184;2024-03-23T10:15:20;12.20;99.90
27741;DHT22;15134;48.768;9.184;2024-03-23T10:17:46;12.30;99.90
27741;DHT22;15134;48.768;9.184;2024-03-23T10:20:12;12.30;99.90
27741;DHT22;15134;48.768;9.184;2024-03-23T10:22:38;12.30;99.90
27741;DHT22;15134;48.768;9.184;2024-03-23T10:25:08;12.20;99.90
27741;DHT22;15134;48.768;9.184;2024-03-23T10:27:35;11.90;99.90
27741;DHT22;15134;48.768;9.184;2024-03-23T10:30:11;11.70;99.90
27741;DHT22;15134;48.768;9.184;2024-03-23T10:32:38;11.60;99.90
27741;DHT22;15134;48.768;9.184;2024-03-23T10:35:17;11.70;99.90
27741;DHT22;15134;48.768;9.184;2024-03-23T10:37:51;11.80;99.90
27741;DHT22;15134;48.768;9.184;2024-03-23T10:40:17;11.80;99.90
27741;DHT22;15134;48.768;9.184;2024-03-23T10:42:44;11.80;99.90
27741;DHT22;15134;48.768;9.184;2024-03-23T10:45:10;11.70;99.90
27741;DHT22;15134;48.768;9.184;2024-03-23T10:47:37;11.40;99.90
27741;DHT22;15134;48.768;9.184;2024-03-23T10:50:06;11.30;99.90
27741;DHT22;15134;48.768;9.184;2024-03-23T10:52:35;11.10;99.90
27741;DHT22;15134;48.768;9.184;2024-03-23T10:55:05;10.80;99.90
27741;DHT22;15134;48.768;9.184;2024-03-23T10:57:40;10.80;99.90
27741;DHT22;15134;48.768;9.184;2024-03-23T11:00:07;10.50;99.90
27741;DHT22;15134;48.768;9.184;2024-03-23T11:02:34;10.00;99.90
27741;DHT22;15134;48.768;9.184;2024-03-23T11:04:59;9.80;99.90
27741;DHT22;15134;48.768;9.184;2024-03-23T11:07:29;9.80;99.90
27741;DHT22;15134;48.768;9.184;2024-03-23T11:09:55;9.80;99.90
27741;DHT22;15134;48.768;9.184;2024-03-23T11:15:11;9.60;99.90
27741;DHT22;15134;48.768;9.184;2024-03-23T11:17:38;9.80;99.90
27741;DHT22;15134;48.768;9.184;2024-03-23T11:20:05;10.10;99.90
27741;DHT22;15134;48.768;9.184;2024-03-23T11:25:04;10.80;99.90
27741;DHT22;15134;48.768;9.184;2024-03-23T11:27:37;11.10;99.90
27741;DHT22;15134;48.768;9.184;2024-03-23T11:30:18;11.30;99.90
27741;DHT22;15134;48.768;9.184;2024-03-23T11:32:49;11.50;99.90
27741;DHT22;15134;48.768;9.184;2024-03-23T11:38:07;11.80;99.90
27741;DHT22;15134;48.768;9.184;2024-03-23T11:40:35;11.80;99.90
27741;DHT22;15134;48.768;9.184;2024-03-23T11:43:05;11.70;99.90
27741;DHT22;15134;48.768;9.184;2024-03-23T11:45:35;11.80;99.90
27741;DHT22;15134;48.768;9.184;2024-03-23T11:48:02;12.10;99.90
27741;DHT22;15134;48.768;9.184;2024-03-23T11:50:28;12.20;99.90
27741;DHT22;15134;48.768;9.184;2024-03-23T11:53:27;12.20;99.90
27741;DHT22;15134;48.768;9.184;2024-03-23T11:55:59;12.20;99.90
27741;DHT22;15134;48.768;9.184;2024-03-23T11:58:28;12.30;99.90
27741;DHT22;15134;48.768;9.184;2024-03-23T12:03:23;12.40;99.90
27741;DHT22;15134;48.768;9.184;2024-03-23T12:05:55;12.30;99.90
27741;DHT22;15134;48.768;9.184;2024-03-23T12:08:23;12.00;99.90
27741;DHT22;15134;48.768;9.184;2024-03-23T12:10:53;11.80;99.90
27741;DHT22;15134;48.768;9.184;2024-03-23T12:13:22;11.90;99.90
27741;DHT22;15134;48.768;9.184;2024-03-23T12:15:50;11.80;99.90
27741;DHT22;15134;48.768;9.184;2024-03-23T12:18:16;11.70;99.90
27741;DHT22;15134;48.768;9.184;2024-03-23T12:20:42;11.70;99.90
27741;DHT22;15134;48.768;9.184;2024-03-23T12:23:10;11.70;99.90
27741;DHT22;15134;48.768;9.184;2024-03-23T12:25:39;11.80;99.90
27741;DHT22;15134;48.768;9.184;2024-03-23T12:28:05;11.80;99.90
27741;DHT22;15134;48.768;9.184;2024-03-23T12:30:36;11.80;99.90
27741;DHT22;15134;48.768;9.184;2024-03-23T12:33:04;11.80;99.90
27741;DHT22;15134;48.768;9.184;2024-03-23T12:35:29;11.80;99.90
27741;DHT22;15134;48.768;9.184;2024-03-23T12:37:56;11.80;99.90
27741;DHT22;15134;48.768;9.184;2024-03-23T12:40:21;11.90;99.90
27741;DHT22;15134;48.768;9.184;2024-03-23T12:42:47;12.10;99.90
27741;DHT22;15134;48.768;9.184;2024-03-23T12:45:13;12.00;99.90
27741;DHT22;15134;48.768;9.184;2024-03-23T12:47:39;12.10;99.90
27741;DHT22;15134;48.768;9.184;2024-03-23T12:50:05;12.00;99.90
27741;DHT22;15134;48.768;9.184;2024-03-23T12:52:32;12.00;99.90
27741;DHT22;15134;48.768;9.184;2024-03-23T12:54:58;12.00;99.90
27741;DHT22;15134;48.768;9.184;2024-03-23T12:57:25;11.80;99.90
27741;DHT22;15134;48.768;9.184;2024-03-23T12:59:53;11.60;99.90
27741;DHT22;15134;48.768;9.184;2024-03-23T13:02:20;11.30;99.90
27741;DHT22;15134;48.768;9.184;2024-03-23T13:04:55;11.30;99.90
27741;DHT22;15134;48.768;9.184;2024-03-23T13:07:22;11.40;99.90
27741;DHT22;15134;48.768;9.184;2024-03-23T13:09:51;11.50;99.90
27741;DHT22;15134;48.768;9.184;2024-03-23T13:12:18;11.50;99.90
27741;DHT22;15134;48.768;9.184;2024-03-23T13:14:45;11.40;99.90
27741;DHT22;15134;48.768;9.184;2024-03-23T13:17:11;11.30;99.90
27741;DHT22;15134;48.768;9.184;2024-03-23T13:19:37;11.30;99.90
27741;DHT22;15134;48.768;9.184;2024-03-23T13:22:03;11.30;99.90
27741;DHT22;15134;48.768;9.184;2024-03-23T13:24:29;11.40;99.90
27741;DHT22;15134;48.768;9.184;2024-03-23T13:26:56;11.40;99.90
27741;DHT22;15134;48.768;9.184;2024-03-23T13:29:22;11.30;99.90
27741;DHT22;15134;48.768;9.184;2024-03-23T13:31:49;11.30;99.90
27741;DHT22;15134;48.768;9.184;2024-03-23T13:34:15;11.30;99.90
27741;DHT22;15134;48.768;9.184;2024-03-23T13:36:44;11.20;99.90
27741;DHT22;15134;48.768;9.184;2024-03-23T13:39:11;11.30;99.90
27741;DHT22;15134;48.768;9.184;2024-03-23T13:41:46;11.50;99.90
27741;DHT22;15134;48.768;9.184;2024-03-23T13:44:13;11.60;99.90
27741;DHT22;15134;48.768;9.184;2024-03-23T13:46:40;11.60;99.90
27741;DHT22;15134;48.768;9.184;2024-03-23T13:49:34;11.70;99.90
27741;DHT22;15134;48.768;9.184;2024-03-23T13:51:59;11.70;99.90
27741;DHT22;15134;48.768;9.184;2024-03-23T13:54:26;11.50;99.90
27741;DHT22;15134;48.768;9.184;2024-03-23T13:56:52;11.40;99.90
27741;DHT22;15134;48.768;9.184;2024-03-23T13:59:18;11.30;99.90
27741;DHT22;15134;48.768;9.184;2024-03-23T14:01:44;11.20;99.90
27741;DHT22;15134;48.768;9.184;2024-03-23T14:04:13;11.20;99.90
27741;DHT22;15134;48.768;9.184;2024-03-23T14:06:42;11.10;99.90
27741;DHT22;15134;48.768;9.184;2024-03-23T14:09:11;11.10;99.90
27741;DHT22;15134;48.768;9.184;2024-03-23T14:11:36;11.00;99.90
27741;DHT22;15134;48.768;9.184;2024-03-23T14:14:02;10.70;99.90
27741;DHT22;15134;48.768;9.184;2024-03-23T14:16:30;10.20;99.90
27741;DHT22;15134;48.768;9.184;2024-03-23T14:18:55;9.90;99.90
27741;DHT22;15134;48.768;9.184;2024-03-23T14:21:21;9.70;99.90
27741;DHT22;15134;48.768;9.184;2024-03-23T14:23:47;9.20;99.90
27741;DHT22;15134;48.768;9.184;2024-03-23T14:26:13;9.00;99.90
27741;DHT22;15134;48.768;9.184;2024-03-23T14:28:38;9.10;99.90
27741;DHT22;15134;48.768;9.184;2024-03-23T14:31:05;9.20;99.90
27741;DHT22;15134;48.768;9.184;2024-03-23T14:33:36;9.30;99.90
27741;DHT22;15134;48.768;9.184;2024-03-23T14:36:03;9.60;99.90
27741;DHT22;15134;48.768;9.184;2024-03-23T14:38:29;10.00;99.90
27741;DHT22;15134;48.768;9.184;2024-03-23T14:41:01;10.10;99.90
27741;DHT22;15134;48.768;9.184;2024-03-23T14:43:29;10.00;99.90
27741;DHT22;15134;48.768;9.184;2024-03-23T14:46:14;10.00;99.90
27741;DHT22;15134;48.768;9.184;2024-03-23T14:48:42;10.00;99.90
27741;DHT22;15134;48.768;9.184;2024-03-23T14:51:08;10.00;99.90
27741;DHT22;15134;48.768;9.184;2024-03-23T14:53:44;10.00;99.90
27741;DHT22;15134;48.768;9.184;2024-03-23T14:56:10;9.90;99.90
27741;DHT22;15134;48.768;9.184;2024-03-23T14:58:38;9.80;99.90
27741;DHT22;15134;48.768;9.184;2024-03-23T15:01:06;9.80;99.90
27741;DHT22;15134;48.768;9.184;2024-03-23T15:03:35;9.60;99.90
27741;DHT22;15134;48.768;9.184;2024-03-23T15:06:01;9.70;99.90
27741;DHT22;15134;48.768;9.184;2024-03-23T15:08:28;9.70;99.90
27741;DHT22;15134;48.768;9.184;2024-03-23T15:10:54;9.80;99.90
27741;DHT22;15134;48.768;9.184;2024-03-23T15:13:20;9.90;99.90
27741;DHT22;15134;48.768;9.184;2024-03-23T15:15:48;10.00;99.90
27741;DHT22;15134;48.768;9.184;2024-03-23T15:18:15;10.00;99.90
27741;DHT22;15134;48.768;9.184;2024-03-23T15:20:41;10.10;99.90
27741;DHT22;15134;48.768;9.184;2024-03-23T15:23:07;10.10;99.90
27741;DHT22;15134;48.768;9.184;2024-03-23T15:25:33;10.00;99.90
27741;DHT22;15134;48.768;9.184;2024-03-23T15:27:59;10.00;99.90
27741;DHT22;15134;48.768;9.184;2024-03-23T15:30:26;10.00;99.90
27741;DHT22;15134;48.768;9.184;2024-03-23T15:32:52;9.70;99.90
27741;DHT22;15134;48.768;9.184;2024-03-23T15:35:18;9.60;99.90
27741;DHT22;15134;48.768;9.184;2024-03-23T15:37:44;9.60;99.90
27741;DHT22;15134;48.768;9.184;2024-03-23T15:40:11;9.50;99.90
27741;DHT22;15134;48.768;9.184;2024-03-23T15:42:38;9.50;99.90
27741;DHT22;15134;48.768;9.184;2024-03-23T15:45:06;9.50;99.90
27741;DHT22;15134;48.768;9.184;2024-03-23T15:47:34;9.50;99.90
27741;DHT22;15134;48.768;9.184;2024-03-23T15:50:00;9.60;99.90
27741;DHT22;15134;48.768;9.184;2024-03-23T15:52:26;9.70;99.90
27741;DHT22;15134;48.768;9.184;2024-03-23T15:54:52;9.70;99.90
27741;DHT22;15134;48.768;9.184;2024-03-23T15:57:18;9.80;99.90
27741;DHT22;15134;48.768;9.184;2024-03-23T15:59:44;9.80;99.90
27741;DHT22;15134;48.768;9.184;2024-03-23T16:02:09;9.60;99.90
27741;DHT22;15134;48.768;9.184;2024-03-23T16:04:35;9.60;99.90
27741;DHT22;15134;48.768;9.184;2024-03-23T16:07:01;9.60;99.90
27741;DHT22;15134;48.768;9.184;2024-03-23T16:09:27;9.70;99.90
27741;DHT22;15134;48.768;9.184;2024-03-23T16:11:55;9.70;99.90
27741;DHT22;15134;48.768;9.184;2024-03-23T16:14:21;9.50;99.90
27741;DHT22;15134;48.768;9.184;2024-03-23T16:16:46;9.30;99.90
27741;DHT22;15134;48.768;9.184;2024-03-23T16:19:12;9.20;99.90
27741;DHT22;15134;48.768;9.184;2024-03-23T16:21:39;9.10;99.90
27741;DHT22;15134;48.768;9.184;2024-03-23T16:24:06;9.10;99.90
27741;DHT22;15134;48.768;9.184;2024-03-23T16:26:33;9.10;99.90
27741;DHT22;15134;48.768;9.184;2024-03-23T16:28:59;9.00;99.90
27741;DHT22;15134;48.768;9.184;2024-03-23T16:31:25;8.80;99.90
27741;DHT22;15134;48.768;9.184;2024-03-23T16:33:50;8.70;99.90
27741;DHT22;15134;48.768;9.184;2024-03-23T16:36:19;8.70;99.90